sensor_id;sensor_type;location;lat;lon;timestamp;pressure;altitude;pressure_sealevel;temperature;humidity
55032;BME280;40928;51.076;7.950;2022-12-20T00:02:09;97236.78;;;6.13;100.00
55032;BME280;40928;51.076;7.950;2022-12-20T00:04:34;97241.66;;;6.22;100.00
55032;BME280;40928;51.076;7.950;2022-12-20T00:07:00;97235.13;;;6.18;100.00
55032;BME280;40928;51.076;7.950;2022-12-20T00:09:25;97234.31;;;6.24;100.00
55032;BME280;40928;51.076;7.950;2022-12-20T00:11:51;97217.19;;;6.20;100.00
55032;BME280;40928;51.076;7.950;2022-12-20T00:14:16;97220.47;;;6.22;100.00
55032;BME280;40928;51.076;7.950;2022-12-20T00:16:42;97216.97;;;6.15;100.00
55032;BME280;40928;51.076;7.950;2022-12-20T00:19:09;97209.84;;;6.16;100.00
55032;BME280;40928;51.076;7.950;2022-12-20T00:21:35;97200.88;;;6.10;100.00
55032;BME280;40928;51.076;7.950;2022-12-20T00:24:03;97187.63;;;6.10;100.00
55032;BME280;40928;51.076;7.950;2022-12-20T00:26:30;97184.13;;;6.23;100.00
55032;BME280;40928;51.076;7.950;2022-12-20T00:28:58;97182.50;;;6.22;100.00
55032;BME280;40928;51.076;7.950;2022-12-20T00:31:26;97186.19;;;6.21;100.00
55032;BME280;40928;51.076;7.950;2022-12-20T00:33:53;97186.38;;;6.26;100.00
55032;BME280;40928;51.076;7.950;2022-12-20T00:36:21;97184.94;;;6.23;100.00
55032;BME280;40928;51.076;7.950;2022-12-20T00:38:47;97193.09;;;6.22;100.00
55032;BME280;40928;51.076;7.950;2022-12-20T00:41:16;97184.34;;;6.21;100.00
55032;BME280;40928;51.076;7.950;2022-12-20T00:43:42;97181.47;;;6.30;100.00
55032;BME280;40928;51.076;7.950;2022-12-20T00:46:10;97178.63;;;6.24;100.00
55032;BME280;40928;51.076;7.950;2022-12-20T00:48:36;97183.91;;;6.38;100.00
55032;BME280;40928;51.076;7.950;2022-12-20T00:51:05;97176.72;;;6.52;100.00
55032;BME280;40928;51.076;7.950;2022-12-20T00:53:32;97180.38;;;6.58;100.00
55032;BME280;40928;51.076;7.950;2022-12-20T00:55:58;97178.56;;;6.51;100.00
55032;BME280;40928;51.076;7.950;2022-12-20T00:58:24;97186.31;;;6.46;100.00
55032;BME280;40928;51.076;7.950;2022-12-20T01:00:50;97193.03;;;6.55;100.00
55032;BME280;40928;51.076;7.950;2022-12-20T01:03:16;97171.38;;;6.59;100.00
55032;BME280;40928;51.076;7.950;2022-12-20T01:05:52;97174.44;;;6.55;100.00
55032;BME280;40928;51.076;7.950;2022-12-20T01:08:18;97170.56;;;6.65;100.00
55032;BME280;40928;51.076;7.950;2022-12-20T01:10:44;97171.00;;;6.55;100.00
55032;BME280;40928;51.076;7.950;2022-12-20T01:13:10;97174.69;;;6.47;100.00
55032;BME280;40928;51.076;7.950;2022-12-20T01:15:35;97161.66;;;6.39;100.00
55032;BME280;40928;51.076;7.950;2022-12-20T01:18:01;97165.53;;;6.36;100.00
55032;BME280;40928;51.076;7.950;2022-12-20T01:20:27;97159.22;;;6.31;100.00
55032;BME280;40928;51.076;7.950;2022-12-20T01:22:52;97158.00;;;6.27;100.00
55032;BME280;40928;51.076;7.950;2022-12-20T01:25:17;97150.06;;;6.27;100.00
55032;BME280;40928;51.076;7.950;2022-12-20T01:27:43;97154.72;;;6.31;100.00
55032;BME280;40928;51.076;7.950;2022-12-20T01:30:09;97154.72;;;6.31;100.00
55032;BME280;40928;51.076;7.950;2022-12-20T01:32:35;97162.09;;;6.36;100.00
55032;BME280;40928;51.076;7.950;2022-12-20T01:35:00;97157.81;;;6.35;100.00
55032;BME280;40928;51.076;7.950;2022-12-20T01:37:26;97153.47;;;6.47;100.00
55032;BME280;40928;51.076;7.950;2022-12-20T01:39:52;97150.16;;;6.59;100.00
55032;BME280;40928;51.076;7.950;2022-12-20T01:42:17;97142.84;;;6.54;100.00
55032;BME280;40928;51.076;7.950;2022-12-20T01:45:04;97161.22;;;6.49;100.00
55032;BME280;40928;51.076;7.950;2022-12-20T01:47:33;97161.19;;;6.55;100.00
55032;BME280;40928;51.076;7.950;2022-12-20T01:50:02;97156.69;;;6.63;100.00
55032;BME280;40928;51.076;7.950;2022-12-20T01:52:38;97154.03;;;6.63;100.00
55032;BME280;40928;51.076;7.950;2022-12-20T01:55:19;97151.44;;;6.49;100.00
55032;BME280;40928;51.076;7.950;2022-12-20T01:57:51;97155.13;;;6.42;100.00
55032;BME280;40928;51.076;7.950;2022-12-20T02:00:19;97148.38;;;6.52;100.00
55032;BME280;40928;51.076;7.950;2022-12-20T02:02:46;97154.06;;;6.56;100.00
55032;BME280;40928;51.076;7.950;2022-12-20T02:05:14;97152.66;;;6.53;100.00
55032;BME280;40928;51.076;7.950;2022-12-20T02:07:44;97144.25;;;6.57;100.00
55032;BME280;40928;51.076;7.950;2022-12-20T02:10:14;97151.78;;;6.60;100.00
55032;BME280;40928;51.076;7.950;2022-12-20T02:12:43;97135.69;;;6.54;100.00
55032;BME280;40928;51.076;7.950;2022-12-20T02:15:19;97146.31;;;6.48;100.00
55032;BME280;40928;51.076;7.950;2022-12-20T02:18:06;97145.28;;;6.49;100.00
55032;BME280;40928;51.076;7.950;2022-12-20T02:20:46;97132.63;;;6.51;100.00
55032;BME280;40928;51.076;7.950;2022-12-20T02:31:59;97121.16;;;6.64;100.00
55032;BME280;40928;51.076;7.950;2022-12-20T02:34:28;97124.03;;;6.55;100.00
55032;BME280;40928;51.076;7.950;2022-12-20T02:36:56;97136.91;;;6.59;100.00
55032;BME280;40928;51.076;7.950;2022-12-20T02:39:22;97122.97;;;6.70;100.00
55032;BME280;40928;51.076;7.950;2022-12-20T02:41:54;97110.19;;;6.53;100.00
55032;BME280;40928;51.076;7.950;2022-12-20T02:44:24;97124.03;;;6.55;100.00
55032;BME280;40928;51.076;7.950;2022-12-20T02:47:12;97133.63;;;6.57;100.00
55032;BME280;40928;51.076;7.950;2022-12-20T02:49:40;97117.56;;;6.45;100.00
55032;BME280;40928;51.076;7.950;2022-12-20T02:52:08;97119.22;;;6.46;100.00
55032;BME280;40928;51.076;7.950;2022-12-20T02:54:37;97138.78;;;6.51;100.00
55032;BME280;40928;51.076;7.950;2022-12-20T02:57:24;97109.00;;;6.43;100.00
55032;BME280;40928;51.076;7.950;2022-12-20T03:02:33;97122.25;;;6.49;100.00
55032;BME280;40928;51.076;7.950;2022-12-20T03:05:23;97107.31;;;6.55;100.00
55032;BME280;40928;51.076;7.950;2022-12-20T03:07:49;97091.88;;;6.38;100.00
55032;BME280;40928;51.076;7.950;2022-12-20T03:10:19;97092.69;;;6.39;100.00
55032;BME280;40928;51.076;7.950;2022-12-20T03:12:45;97093.91;;;6.43;100.00
55032;BME280;40928;51.076;7.950;2022-12-20T03:15:11;97082.06;;;6.39;100.00
55032;BME280;40928;51.076;7.950;2022-12-20T03:17:36;97082.31;;;6.31;100.00
55032;BME280;40928;51.076;7.950;2022-12-20T03:20:04;97078.44;;;6.27;100.00
55032;BME280;40928;51.076;7.950;2022-12-20T03:22:31;97078.22;;;6.35;100.00
55032;BME280;40928;51.076;7.950;2022-12-20T03:24:58;97085.63;;;6.19;100.00
55032;BME280;40928;51.076;7.950;2022-12-20T03:27:25;97090.31;;;6.17;100.00
55032;BME280;40928;51.076;7.950;2022-12-20T03:29:53;97088.91;;;6.21;100.00
55032;BME280;40928;51.076;7.950;2022-12-20T03:32:19;97083.00;;;6.13;100.00
55032;BME280;40928;51.076;7.950;2022-12-20T03:34:45;97090.53;;;6.09;100.00
55032;BME280;40928;51.076;7.950;2022-12-20T03:37:11;97109.09;;;6.09;100.00
55032;BME280;40928;51.076;7.950;2022-12-20T03:39:37;97094.44;;;6.06;100.00
55032;BME280;40928;51.076;7.950;2022-12-20T03:42:03;97088.13;;;6.01;100.00
55032;BME280;40928;51.076;7.950;2022-12-20T03:44:28;97090.72;;;6.21;100.00
55032;BME280;40928;51.076;7.950;2022-12-20T03:46:54;97071.16;;;6.15;100.00
55032;BME280;40928;51.076;7.950;2022-12-20T03:49:20;97066.69;;;6.09;100.00
55032;BME280;40928;51.076;7.950;2022-12-20T03:51:49;97081.41;;;6.05;100.00
55032;BME280;40928;51.076;7.950;2022-12-20T03:54:15;97085.47;;;6.01;100.00
55032;BME280;40928;51.076;7.950;2022-12-20T03:57:03;97072.84;;;6.03;100.00
55032;BME280;40928;51.076;7.950;2022-12-20T03:59:30;97069.56;;;6.01;100.00
55032;BME280;40928;51.076;7.950;2022-12-20T04:01:56;97075.66;;;6.01;100.00
55032;BME280;40928;51.076;7.950;2022-12-20T04:04:22;97071.97;;;6.22;100.00
55032;BME280;40928;51.076;7.950;2022-12-20T04:06:47;97065.81;;;6.29;100.00
55032;BME280;40928;51.076;7.950;2022-12-20T04:09:14;97067.44;;;6.30;100.00
55032;BME280;40928;51.076;7.950;2022-12-20T04:11:46;97074.38;;;6.31;100.00
55032;BME280;40928;51.076;7.950;2022-12-20T04:14:13;97070.44;;;6.40;100.00
55032;BME280;40928;51.076;7.950;2022-12-20T04:16:39;97069.28;;;6.29;100.00
55032;BME280;40928;51.076;7.950;2022-12-20T04:19:05;97074.16;;;6.32;100.00
55032;BME280;40928;51.076;7.950;2022-12-20T04:21:47;97079.66;;;6.31;100.00
55032;BME280;40928;51.076;7.950;2022-12-20T04:24:14;97075.75;;;6.40;100.00
55032;BME280;40928;51.076;7.950;2022-12-20T04:27:03;97087.34;;;6.52;100.00
55032;BME280;40928;51.076;7.950;2022-12-20T04:29:30;97084.91;;;6.44;100.00
55032;BME280;40928;51.076;7.950;2022-12-20T04:31:57;97088.19;;;6.46;100.00
55032;BME280;40928;51.076;7.950;2022-12-20T04:34:23;97084.09;;;6.50;100.00
55032;BME280;40928;51.076;7.950;2022-12-20T04:36:49;97073.84;;;6.54;100.00
55032;BME280;40928;51.076;7.950;2022-12-20T04:39:23;97065.09;;;6.47;100.00
55032;BME280;40928;51.076;7.950;2022-12-20T04:42:21;97058.41;;;6.37;100.00
55032;BME280;40928;51.076;7.950;2022-12-20T04:44:48;97082.50;;;6.43;100.00
55032;BME280;40928;51.076;7.950;2022-12-20T04:47:19;97055.97;;;6.43;100.00
55032;BME280;40928;51.076;7.950;2022-12-20T04:49:45;97072.38;;;6.65;100.00
55032;BME280;40928;51.076;7.950;2022-12-20T04:52:10;97080.63;;;6.43;100.00
55032;BME280;40928;51.076;7.950;2022-12-20T04:54:54;97068.31;;;6.55;100.00
55032;BME280;40928;51.076;7.950;2022-12-20T04:57:25;97061.19;;;6.56;100.00
55032;BME280;40928;51.076;7.950;2022-12-20T04:59:50;97056.91;;;6.55;100.00
55032;BME280;40928;51.076;7.950;2022-12-20T05:02:16;97062.44;;;6.47;100.00
55032;BME280;40928;51.076;7.950;2022-12-20T05:04:49;97066.56;;;6.43;100.00
55032;BME280;40928;51.076;7.950;2022-12-20T05:07:15;97056.13;;;6.48;100.00
55032;BME280;40928;51.076;7.950;2022-12-20T05:09:46;97041.72;;;6.37;100.00
55032;BME280;40928;51.076;7.950;2022-12-20T05:12:12;97060.09;;;6.32;100.00
55032;BME280;40928;51.076;7.950;2022-12-20T05:14:37;97058.03;;;6.34;100.00
55032;BME280;40928;51.076;7.950;2022-12-20T05:17:03;97047.63;;;6.32;100.00
55032;BME280;40928;51.076;7.950;2022-12-20T05:19:30;97058.88;;;6.28;100.00
55032;BME280;40928;51.076;7.950;2022-12-20T05:21:55;97057.63;;;6.37;100.00
55032;BME280;40928;51.076;7.950;2022-12-20T05:24:46;97051.25;;;6.45;100.00
55032;BME280;40928;51.076;7.950;2022-12-20T05:27:35;97048.63;;;6.38;100.00
55032;BME280;40928;51.076;7.950;2022-12-20T05:30:05;97045.16;;;6.37;100.00
55032;BME280;40928;51.076;7.950;2022-12-20T05:32:31;97060.69;;;6.34;100.00
55032;BME280;40928;51.076;7.950;2022-12-20T05:34:57;97057.41;;;6.38;100.00
55032;BME280;40928;51.076;7.950;2022-12-20T05:37:23;97042.09;;;6.40;100.00
55032;BME280;40928;51.076;7.950;2022-12-20T05:39:48;97033.50;;;6.45;100.00
55032;BME280;40928;51.076;7.950;2022-12-20T05:42:19;97026.13;;;6.47;100.00
55032;BME280;40928;51.076;7.950;2022-12-20T05:44:48;97011.47;;;6.45;100.00
55032;BME280;40928;51.076;7.950;2022-12-20T05:47:14;97022.00;;;6.58;100.00
55032;BME280;40928;51.076;7.950;2022-12-20T05:49:40;97036.06;;;6.59;100.00
55032;BME280;40928;51.076;7.950;2022-12-20T05:52:08;97029.81;;;6.46;100.00
55032;BME280;40928;51.076;7.950;2022-12-20T05:54:38;97024.91;;;6.50;100.00
55032;BME280;40928;51.076;7.950;2022-12-20T05:57:08;97028.19;;;6.45;100.00
55032;BME280;40928;51.076;7.950;2022-12-20T05:59:36;97029.63;;;6.41;100.00
55032;BME280;40928;51.076;7.950;2022-12-20T06:02:04;97024.16;;;6.36;100.00
55032;BME280;40928;51.076;7.950;2022-12-20T06:04:31;97026.19;;;6.40;100.00
55032;BME280;40928;51.076;7.950;2022-12-20T06:06:58;97022.31;;;6.36;100.00
55032;BME280;40928;51.076;7.950;2022-12-20T06:09:24;97018.81;;;6.43;100.00
55032;BME280;40928;51.076;7.950;2022-12-20T06:11:58;97017.38;;;6.40;100.00
55032;BME280;40928;51.076;7.950;2022-12-20T06:14:25;97016.13;;;6.49;100.00
55032;BME280;40928;51.076;7.950;2022-12-20T06:16:52;97027.81;;;6.42;100.00
55032;BME280;40928;51.076;7.950;2022-12-20T06:19:18;97031.06;;;6.44;100.00
55032;BME280;40928;51.076;7.950;2022-12-20T06:21:45;97023.94;;;6.37;100.00
55032;BME280;40928;51.076;7.950;2022-12-20T06:24:13;97019.25;;;6.39;100.00
55032;BME280;40928;51.076;7.950;2022-12-20T06:26:42;97025.53;;;6.45;100.00
55032;BME280;40928;51.076;7.950;2022-12-20T06:29:08;97031.00;;;6.57;100.00
55032;BME280;40928;51.076;7.950;2022-12-20T06:31:48;97035.09;;;6.53;100.00
55032;BME280;40928;51.076;7.950;2022-12-20T06:34:15;97025.69;;;6.57;100.00
55032;BME280;40928;51.076;7.950;2022-12-20T06:36:48;97029.69;;;6.66;100.00
55032;BME280;40928;51.076;7.950;2022-12-20T06:39:21;97022.19;;;6.57;100.00
55032;BME280;40928;51.076;7.950;2022-12-20T06:42:06;97020.75;;;6.61;100.00
55032;BME280;40928;51.076;7.950;2022-12-20T06:44:34;97012.38;;;6.64;100.00
55032;BME280;40928;51.076;7.950;2022-12-20T06:47:00;97020.16;;;6.59;100.00
55032;BME280;40928;51.076;7.950;2022-12-20T06:49:26;97013.63;;;6.54;100.00
55032;BME280;40928;51.076;7.950;2022-12-20T06:51:52;96998.56;;;6.55;100.00
55032;BME280;40928;51.076;7.950;2022-12-20T06:54:23;97007.75;;;6.52;100.00
55032;BME280;40928;51.076;7.950;2022-12-20T06:56:49;97004.88;;;6.54;100.00
55032;BME280;40928;51.076;7.950;2022-12-20T06:59:15;97008.81;;;6.45;100.00
55032;BME280;40928;51.076;7.950;2022-12-20T07:01:41;96993.88;;;6.50;100.00
55032;BME280;40928;51.076;7.950;2022-12-20T07:04:07;96994.88;;;6.56;100.00
55032;BME280;40928;51.076;7.950;2022-12-20T07:06:32;97001.53;;;6.65;100.00
55032;BME280;40928;51.076;7.950;2022-12-20T07:08:58;96999.72;;;6.66;100.00
55032;BME280;40928;51.076;7.950;2022-12-20T07:11:24;97000.88;;;6.70;100.00
55032;BME280;40928;51.076;7.950;2022-12-20T07:13:54;97005.69;;;6.54;100.00
55032;BME280;40928;51.076;7.950;2022-12-20T07:16:21;96994.03;;;6.55;100.00
55032;BME280;40928;51.076;7.950;2022-12-20T07:18:51;96995.66;;;6.57;100.00
55032;BME280;40928;51.076;7.950;2022-12-20T07:21:17;96986.94;;;6.49;100.00
55032;BME280;40928;51.076;7.950;2022-12-20T07:23:44;96996.13;;;6.53;100.00
55032;BME280;40928;51.076;7.950;2022-12-20T07:26:10;96986.78;;;6.44;100.00
55032;BME280;40928;51.076;7.950;2022-12-20T07:28:36;96979.59;;;6.51;100.00
55032;BME280;40928;51.076;7.950;2022-12-20T07:31:02;96987.75;;;6.50;100.00
55032;BME280;40928;51.076;7.950;2022-12-20T07:33:28;96985.94;;;6.50;100.00
55032;BME280;40928;51.076;7.950;2022-12-20T07:36:07;96982.88;;;6.47;100.00
55032;BME280;40928;51.076;7.950;2022-12-20T07:38:34;96983.31;;;6.44;100.00
55032;BME280;40928;51.076;7.950;2022-12-20T07:41:05;96966.91;;;6.60;100.00
55032;BME280;40928;51.076;7.950;2022-12-20T07:43:30;96967.50;;;6.55;100.00
55032;BME280;40928;51.076;7.950;2022-12-20T07:45:56;96973.47;;;6.51;100.00
55032;BME280;40928;51.076;7.950;2022-12-20T07:48:22;96961.28;;;6.43;100.00
55032;BME280;40928;51.076;7.950;2022-12-20T07:50:51;96967.69;;;6.61;100.00
55032;BME280;40928;51.076;7.950;2022-12-20T07:53:19;96965.72;;;6.49;100.00
55032;BME280;40928;51.076;7.950;2022-12-20T07:55:45;96940.78;;;6.57;100.00
55032;BME280;40928;51.076;7.950;2022-12-20T07:58:12;96965.13;;;6.47;100.00
55032;BME280;40928;51.076;7.950;2022-12-20T08:00:38;96950.78;;;6.55;100.00
55032;BME280;40928;51.076;7.950;2022-12-20T08:03:14;96946.81;;;6.39;100.00
55032;BME280;40928;51.076;7.950;2022-12-20T08:05:44;96951.94;;;6.34;100.00
55032;BME280;40928;51.076;7.950;2022-12-20T08:08:11;96966.41;;;6.38;100.00
55032;BME280;40928;51.076;7.950;2022-12-20T08:10:37;96951.63;;;6.49;100.00
55032;BME280;40928;51.076;7.950;2022-12-20T08:13:04;96940.84;;;6.50;100.00
55032;BME280;40928;51.076;7.950;2022-12-20T08:15:30;96939.41;;;6.48;100.00
55032;BME280;40928;51.076;7.950;2022-12-20T08:17:57;96947.41;;;6.41;100.00
55032;BME280;40928;51.076;7.950;2022-12-20T08:20:23;96942.06;;;6.48;100.00
55032;BME280;40928;51.076;7.950;2022-12-20T08:22:49;96949.88;;;6.43;100.00
55032;BME280;40928;51.076;7.950;2022-12-20T08:25:14;96950.88;;;6.42;100.00
55032;BME280;40928;51.076;7.950;2022-12-20T08:27:40;96957.31;;;6.59;100.00
55032;BME280;40928;51.076;7.950;2022-12-20T08:30:06;96960.00;;;6.52;100.00
55032;BME280;40928;51.076;7.950;2022-12-20T08:32:33;96963.72;;;6.45;100.00
55032;BME280;40928;51.076;7.950;2022-12-20T08:34:59;96971.88;;;6.43;100.00
55032;BME280;40928;51.076;7.950;2022-12-20T08:37:25;96975.31;;;6.50;100.00
55032;BME280;40928;51.076;7.950;2022-12-20T08:39:50;96983.06;;;6.52;100.00
55032;BME280;40928;51.076;7.950;2022-12-20T08:42:16;96990.03;;;6.46;100.00
55032;BME280;40928;51.076;7.950;2022-12-20T08:44:42;96982.06;;;6.46;100.00
55032;BME280;40928;51.076;7.950;2022-12-20T08:47:08;96987.97;;;6.48;100.00
55032;BME280;40928;51.076;7.950;2022-12-20T08:49:34;96957.78;;;6.49;100.00
55032;BME280;40928;51.076;7.950;2022-12-20T08:52:00;96960.56;;;6.54;100.00
55032;BME280;40928;51.076;7.950;2022-12-20T08:54:26;96962.22;;;6.55;100.00
55032;BME280;40928;51.076;7.950;2022-12-20T08:56:52;96951.88;;;6.47;100.00
55032;BME280;40928;51.076;7.950;2022-12-20T08:59:17;96972.72;;;6.44;100.00
55032;BME280;40928;51.076;7.950;2022-12-20T09:01:46;96962.09;;;6.44;100.00
55032;BME280;40928;51.076;7.950;2022-12-20T09:04:11;96951.63;;;6.49;100.00
55032;BME280;40928;51.076;7.950;2022-12-20T09:06:37;96941.25;;;6.47;100.00
55032;BME280;40928;51.076;7.950;2022-12-20T09:09:04;96943.91;;;6.47;100.00
55032;BME280;40928;51.076;7.950;2022-12-20T09:11:29;96956.69;;;6.57;100.00
55032;BME280;40928;51.076;7.950;2022-12-20T09:13:57;96950.16;;;6.60;100.00
55032;BME280;40928;51.076;7.950;2022-12-20T09:16:28;96948.88;;;6.62;100.00
55032;BME280;40928;51.076;7.950;2022-12-20T09:18:56;96948.47;;;6.65;100.00
55032;BME280;40928;51.076;7.950;2022-12-20T09:21:22;96955.41;;;6.66;100.00
55032;BME280;40928;51.076;7.950;2022-12-20T09:23:52;96954.44;;;6.61;100.00
55032;BME280;40928;51.076;7.950;2022-12-20T09:26:19;96950.53;;;6.63;100.00
55032;BME280;40928;51.076;7.950;2022-12-20T09:28:46;96952.75;;;6.66;100.00
55032;BME280;40928;51.076;7.950;2022-12-20T09:31:15;96947.66;;;6.65;100.00
55032;BME280;40928;51.076;7.950;2022-12-20T09:33:41;96965.22;;;6.66;100.00
55032;BME280;40928;51.076;7.950;2022-12-20T09:36:10;96953.31;;;6.75;100.00
55032;BME280;40928;51.076;7.950;2022-12-20T09:38:36;96962.34;;;6.67;100.00
55032;BME280;40928;51.076;7.950;2022-12-20T09:41:03;96957.41;;;6.71;100.00
55032;BME280;40928;51.076;7.950;2022-12-20T09:43:31;96952.38;;;6.63;100.00
55032;BME280;40928;51.076;7.950;2022-12-20T09:46:00;96955.81;;;6.63;100.00
55032;BME280;40928;51.076;7.950;2022-12-20T09:48:32;96946.22;;;6.69;100.00
55032;BME280;40928;51.076;7.950;2022-12-20T09:59:17;96959.22;;;6.77;100.00
55032;BME280;40928;51.076;7.950;2022-12-20T10:01:45;96955.25;;;6.86;100.00
55032;BME280;40928;51.076;7.950;2022-12-20T10:04:24;96946.38;;;6.74;100.00
55032;BME280;40928;51.076;7.950;2022-12-20T10:18:17;96938.09;;;6.89;100.00
55032;BME280;40928;51.076;7.950;2022-12-20T10:26:08;96917.53;;;6.78;100.00
55032;BME280;40928;51.076;7.950;2022-12-20T10:28:35;96925.03;;;6.88;100.00
55032;BME280;40928;51.076;7.950;2022-12-20T10:31:05;96918.13;;;6.80;100.00
55032;BME280;40928;51.076;7.950;2022-12-20T10:33:31;96920.75;;;6.86;100.00
55032;BME280;40928;51.076;7.950;2022-12-20T10:36:34;96930.00;;;6.77;100.00
55032;BME280;40928;51.076;7.950;2022-12-20T10:39:06;96931.22;;;6.81;100.00
55032;BME280;40928;51.076;7.950;2022-12-20T10:41:54;96915.00;;;6.90;100.00
55032;BME280;40928;51.076;7.950;2022-12-20T10:44:28;96919.94;;;6.86;100.00
55032;BME280;40928;51.076;7.950;2022-12-20T10:46:58;96899.66;;;6.92;100.00
55032;BME280;40928;51.076;7.950;2022-12-20T10:49:38;96904.38;;;6.90;100.00
55032;BME280;40928;51.076;7.950;2022-12-20T10:57:12;96897.91;;;7.04;100.00
55032;BME280;40928;51.076;7.950;2022-12-20T10:59:41;96887.53;;;7.03;100.00
55032;BME280;40928;51.076;7.950;2022-12-20T11:02:38;96893.28;;;6.99;100.00
55032;BME280;40928;51.076;7.950;2022-12-20T11:07:52;96879.75;;;7.01;100.00
55032;BME280;40928;51.076;7.950;2022-12-20T11:10:23;96885.38;;;6.93;100.00
55032;BME280;40928;51.076;7.950;2022-12-20T11:12:56;96871.94;;;6.88;100.00
55032;BME280;40928;51.076;7.950;2022-12-20T11:15:27;96872.47;;;6.96;100.00
55032;BME280;40928;51.076;7.950;2022-12-20T11:17:58;96860.03;;;6.97;100.00
55032;BME280;40928;51.076;7.950;2022-12-20T11:20:40;96862.28;;;6.93;100.00
55032;BME280;40928;51.076;7.950;2022-12-20T11:23:31;96856.16;;;6.93;100.00
55032;BME280;40928;51.076;7.950;2022-12-20T11:29:50;96851.16;;;7.22;100.00
55032;BME280;40928;51.076;7.950;2022-12-20T11:32:06;96831.19;;;7.19;100.00
55032;BME280;40928;51.076;7.950;2022-12-20T11:37:25;96835.59;;;7.25;100.00
55032;BME280;40928;51.076;7.950;2022-12-20T11:51:36;96844.00;;;7.41;100.00
55032;BME280;40928;51.076;7.950;2022-12-20T11:56:58;96824.97;;;7.25;100.00
55032;BME280;40928;51.076;7.950;2022-12-20T11:59:49;96827.44;;;7.27;100.00
55032;BME280;40928;51.076;7.950;2022-12-20T12:02:36;96824.63;;;7.22;100.00
55032;BME280;40928;51.076;7.950;2022-12-20T12:05:13;96820.50;;;7.26;100.00
55032;BME280;40928;51.076;7.950;2022-12-20T12:07:40;96817.25;;;7.24;100.00
55032;BME280;40928;51.076;7.950;2022-12-20T12:10:20;96820.50;;;7.26;100.00
55032;BME280;40928;51.076;7.950;2022-12-20T12:12:53;96818.34;;;7.35;100.00
55032;BME280;40928;51.076;7.950;2022-12-20T12:18:30;96799.97;;;7.33;100.00
55032;BME280;40928;51.076;7.950;2022-12-20T12:21:15;96802.06;;;7.31;100.00
55032;BME280;40928;51.076;7.950;2022-12-20T12:24:04;96800.44;;;7.30;100.00
55032;BME280;40928;51.076;7.950;2022-12-20T12:26:34;96797.53;;;7.31;100.00
55032;BME280;40928;51.076;7.950;2022-12-20T12:29:19;96797.16;;;7.46;100.00
55032;BME280;40928;51.076;7.950;2022-12-20T12:45:29;96796.16;;;7.59;100.00
55032;BME280;40928;51.076;7.950;2022-12-20T12:48:19;96806.28;;;7.51;100.00
55032;BME280;40928;51.076;7.950;2022-12-20T12:50:52;96800.78;;;7.64;100.00
55032;BME280;40928;51.076;7.950;2022-12-20T12:53:23;96788.88;;;7.55;100.00
55032;BME280;40928;51.076;7.950;2022-12-20T12:55:53;96790.56;;;7.49;100.00
55032;BME280;40928;51.076;7.950;2022-12-20T13:11:47;96780.53;;;7.51;100.00
55032;BME280;40928;51.076;7.950;2022-12-20T13:19:37;96774.69;;;7.61;100.00
55032;BME280;40928;51.076;7.950;2022-12-20T13:22:14;96775.47;;;7.61;100.00
55032;BME280;40928;51.076;7.950;2022-12-20T13:29:54;96760.44;;;7.55;100.00
55032;BME280;40928;51.076;7.950;2022-12-20T13:40:56;96750.38;;;7.57;100.00
55032;BME280;40928;51.076;7.950;2022-12-20T13:43:27;96752.75;;;7.66;100.00
55032;BME280;40928;51.076;7.950;2022-12-20T13:51:22;96769.19;;;7.74;100.00
55032;BME280;40928;51.076;7.950;2022-12-20T13:54:05;96757.81;;;7.67;100.00
55032;BME280;40928;51.076;7.950;2022-12-20T13:56:45;96762.69;;;7.70;100.00
55032;BME280;40928;51.076;7.950;2022-12-20T14:01:47;96766.16;;;7.71;100.00
55032;BME280;40928;51.076;7.950;2022-12-20T14:04:13;96758.09;;;7.77;100.00
55032;BME280;40928;51.076;7.950;2022-12-20T14:06:39;96754.38;;;7.67;100.00
55032;BME280;40928;51.076;7.950;2022-12-20T14:09:32;96758.44;;;7.81;100.00
55032;BME280;40928;51.076;7.950;2022-12-20T14:12:06;96758.16;;;7.71;100.00
55032;BME280;40928;51.076;7.950;2022-12-20T14:14:42;96758.66;;;7.80;100.00
55032;BME280;40928;51.076;7.950;2022-12-20T14:17:28;96757.03;;;7.67;100.00
55032;BME280;40928;51.076;7.950;2022-12-20T14:27:55;96752.94;;;7.64;100.00
55032;BME280;40928;51.076;7.950;2022-12-20T14:30:32;96749.06;;;7.67;100.00
55032;BME280;40928;51.076;7.950;2022-12-20T14:32:59;96742.81;;;7.61;100.00
55032;BME280;40928;51.076;7.950;2022-12-20T14:35:24;96741.88;;;7.67;100.00
55032;BME280;40928;51.076;7.950;2022-12-20T14:37:56;96738.72;;;7.58;100.00
55032;BME280;40928;51.076;7.950;2022-12-20T14:40:22;96732.03;;;7.56;100.00
55032;BME280;40928;51.076;7.950;2022-12-20T14:42:48;96731.59;;;7.59;100.00
55032;BME280;40928;51.076;7.950;2022-12-20T14:50:23;96733.59;;;7.75;100.00
55032;BME280;40928;51.076;7.950;2022-12-20T14:52:49;96726.75;;;7.68;100.00
55032;BME280;40928;51.076;7.950;2022-12-20T14:55:22;96728.25;;;7.64;100.00
55032;BME280;40928;51.076;7.950;2022-12-20T14:57:51;96735.03;;;7.59;100.00
55032;BME280;40928;51.076;7.950;2022-12-20T15:08:30;96715.28;;;7.67;100.00
55032;BME280;40928;51.076;7.950;2022-12-20T15:11:00;96710.41;;;7.52;100.00
55032;BME280;40928;51.076;7.950;2022-12-20T15:13:42;96694.00;;;7.43;100.00
55032;BME280;40928;51.076;7.950;2022-12-20T15:18:36;96702.16;;;7.42;100.00
55032;BME280;40928;51.076;7.950;2022-12-20T15:21:05;96697.34;;;7.39;100.00
55032;BME280;40928;51.076;7.950;2022-12-20T15:23:31;96702.06;;;7.49;100.00
55032;BME280;40928;51.076;7.950;2022-12-20T15:25:57;96691.09;;;7.45;100.00
55032;BME280;40928;51.076;7.950;2022-12-20T15:28:24;96696.28;;;7.40;100.00
55032;BME280;40928;51.076;7.950;2022-12-20T15:30:51;96695.22;;;7.41;100.00
55032;BME280;40928;51.076;7.950;2022-12-20T15:33:23;96694.19;;;7.42;100.00
55032;BME280;40928;51.076;7.950;2022-12-20T15:35:49;96695.81;;;7.43;100.00
55032;BME280;40928;51.076;7.950;2022-12-20T15:38:22;96709.34;;;7.41;100.00
55032;BME280;40928;51.076;7.950;2022-12-20T15:40:50;96704.53;;;7.50;100.00